Have a Safe July 4th! 

Flight Track Log - Related Links

Times and Time Zones

All times are in EDT time to prevent confusion due to time zone crossing. See the N5639Z flight status page for this flight to view local times or setup timezone preferences in your user account.

Time Position Orientation Groundspeed Altitude Reporting Facility
EDT Latitude Longitude Course Direction KTS MPH feet Rate Location/Type
Sat 02:54:10 PM 41.5581 -81.5017 184° South 102 117 1,300  Level Cleveland Center
Sat 02:55:05 PM 41.5331 -81.5042 184° South 112 129 2,200 835 Climbing Cleveland Center
Sat 02:56:05 PM 41.5144 -81.4733 129° Southeast 113 130 2,900 397 Climbing Cleveland Center
Sat 02:57:06 PM 41.5397 -81.4403 44° Northeast 158 182 3,000 50 Climbing Cleveland Center
Sat 02:58:06 PM 41.5756 -81.4047 37° Northeast 148 170 3,000  Level Cleveland Center
Sat 02:59:07 PM 41.6133 -81.3803 26° Northeast 153 176 3,000  Level Cleveland Center
Sat 03:00:08 PM 41.6489 -81.3528 30° Northeast 154 177 3,000  Level Cleveland Center
Sat 03:01:08 PM 41.6867 -81.3256 28° Northeast 150 173 3,000  Level Cleveland Center
Sat 03:02:03 PM 41.7200 -81.2953 34° Northeast 153 176 3,000  Level Cleveland Center
Sat 03:03:03 PM 41.7558 -81.2678 30° Northeast 153 176 3,000  Level Cleveland Center
Sat 03:04:04 PM 41.7914 -81.2403 30° Northeast 144 166 3,000  Level Cleveland Center
Sat 03:05:05 PM 41.8247 -81.2183 26° Northeast 133 153 3,000  Level Cleveland Center
Sat 03:06:05 PM 41.8603 -81.1992 22° Northeast 126 145 3,000  Level Cleveland Center
Sat 03:07:06 PM 41.8436 -81.1881 154° Southeast 111 128 3,000  Level Cleveland Center
Sat 03:08:07 PM 41.8206 -81.2156 222° Southwest 112 129 3,000  Level Cleveland Center
Sat 03:09:07 PM 41.7975 -81.2461 225° Southwest 117 135 3,000 -43 Level Cleveland Center
Sat 03:10:26 PM 41.7681 -81.2792 220° Southwest 111 128 2,900 -343 Descending Cleveland Center
Sat 03:11:27 PM 41.7492 -81.3094 230° Southwest 107 123 2,200 -661 Descending Cleveland Center
Sat 03:12:15 PM 41.7283 -81.3317 219° Southwest 108 124 1,700 -550 Descending Cleveland Center
Sat 03:13:16 PM 41.7072 -81.3592 224° Southwest 110 127 1,200 -237 Descending Cleveland Center
Sat 03:14:47 PM 41.6778 -81.4006 226° Southwest 100 115 1,100 207 Descending Cleveland Center
Sat 03:15:41 PM 41.6589 -81.4281 227° Southwest 113 130 1,700 730 Climbing Cleveland Center
Sat 03:16:42 PM 41.6794 -81.4478 324° Northwest 112 129 2,500 639 Climbing Cleveland Center
Sat 03:17:43 PM 41.7108 -81.4342 18° North 127 146 3,000 275 Climbing Cleveland Center
Sat 03:18:31 PM 41.7089 -81.3981 94° East 140 161 3,000  Level Cleveland Center
Sat 03:19:32 PM 41.6756 -81.4089 194° South 127 146 3,000  Level Cleveland Center

Login

Don't have an account? Register now (free) for customized features, flight alerts, and more!